Time;durP1;ratioP1;P1;durP2;ratioP2;P2;SDS_P1;SDS_P2;PMS_P1;PMS_P2;Temp;Humidity;BMP_temperature;BMP_pressure;BME280_temperature;BME280_humidity;BME280_pressure;Samples;Min_cycle;Max_cycle;Signal;HPM_P1;HPM_P2
2023/08/05 00:00:41;;;;;;;5.90;2.93;;;;;;;;;;5015665;28;20224;-85
2023/08/05 00:03:09;;;;;;;2.60;2.40;;;;;;;;;;5047007;28;20254;-85
2023/08/05 00:05:39;;;;;;;3.00;2.70;;;;;;;;;;5042807;28;20246;-86
2023/08/05 00:08:07;;;;;;;5.57;3.00;;;;;;;;;;5049076;28;20230;-85
2023/08/05 00:10:32;;;;;;;8.45;3.05;;;;;;;;;;5029848;28;20224;-86
2023/08/05 00:12:58;;;;;;;3.88;2.72;;;;;;;;;;5024167;28;20317;-84
2023/08/05 00:15:26;;;;;;;3.00;2.50;;;;;;;;;;5029390;28;20235;-84
2023/08/05 00:17:52;;;;;;;3.00;2.70;;;;;;;;;;4987813;28;20274;-84
2023/08/05 00:20:21;;;;;;;3.10;2.70;;;;;;;;;;5033555;28;20224;-84
2023/08/05 00:22:46;;;;;;;2.90;2.67;;;;;;;;;;5003445;28;20238;-84
2023/08/05 00:25:12;;;;;;;4.00;3.00;;;;;;;;;;5040988;28;20219;-84
2023/08/05 00:27:37;;;;;;;2.78;2.58;;;;;;;;;;5013637;28;20224;-84
2023/08/05 00:30:05;;;;;;;7.60;2.47;;;;;;;;;;5021533;28;20598;-84
2023/08/05 00:32:34;;;;;;;3.17;2.60;;;;;;;;;;5011016;28;20219;-84
2023/08/05 00:35:01;;;;;;;3.13;2.90;;;;;;;;;;5039419;28;20235;-84
2023/08/05 00:37:30;;;;;;;3.97;2.33;;;;;;;;;;5008529;28;20278;-84
2023/08/05 00:39:55;;;;;;;2.83;2.45;;;;;;;;;;5025811;28;20224;-84
2023/08/05 00:42:21;;;;;;;2.92;2.35;;;;;;;;;;5049239;28;20220;-84
2023/08/05 00:44:48;;;;;;;4.03;2.60;;;;;;;;;;5020242;28;20707;-84
2023/08/05 00:47:16;;;;;;;4.17;2.80;;;;;;;;;;5022047;28;20219;-84
2023/08/05 00:49:41;;;;;;;3.63;2.55;;;;;;;;;;5023645;28;20235;-84
2023/08/05 00:52:07;;;;;;;4.63;2.40;;;;;;;;;;5035363;28;20277;-84
2023/08/05 00:54:37;;;;;;;12.75;2.85;;;;;;;;;;5043491;28;20228;-84
2023/08/05 00:57:06;;;;;;;8.50;2.63;;;;;;;;;;5004646;28;20236;-84
2023/08/05 00:59:31;;;;;;;4.18;2.90;;;;;;;;;;5017043;28;20228;-84
2023/08/05 01:01:57;;;;;;;3.25;2.80;;;;;;;;;;5030819;28;20231;-84
2023/08/05 01:04:22;;;;;;;3.45;2.63;;;;;;;;;;4994376;28;20589;-84
2023/08/05 01:06:49;;;;;;;3.05;2.75;;;;;;;;;;5014405;28;20225;-84
2023/08/05 01:09:14;;;;;;;4.57;2.78;;;;;;;;;;5039137;28;20222;-84
2023/08/05 01:11:42;;;;;;;3.03;2.70;;;;;;;;;;5023252;28;20228;-84
2023/08/05 01:14:10;;;;;;;4.88;2.70;;;;;;;;;;5025138;28;20225;-84
2023/08/05 01:16:40;;;;;;;3.05;2.70;;;;;;;;;;5027818;28;20234;-84
2023/08/05 01:19:11;;;;;;;4.53;2.50;;;;;;;;;;5040154;28;20251;-83
2023/08/05 01:21:41;;;;;;;3.30;3.00;;;;;;;;;;5034300;28;20239;-84
2023/08/05 01:24:27;;;;;;;3.85;3.00;;;;;;;;;;5030327;28;20223;-84
2023/08/05 01:26:53;;;;;;;5.18;2.80;;;;;;;;;;5034923;28;20600;-84
2023/08/05 01:29:22;;;;;;;5.35;3.30;;;;;;;;;;5028879;28;20220;-85
2023/08/05 01:31:54;;;;;;;6.45;3.58;;;;;;;;;;5045304;28;20227;-84
2023/08/05 01:34:19;;;;;;;4.57;3.60;;;;;;;;;;5001230;28;20283;-84
2023/08/05 01:36:45;;;;;;;4.57;3.28;;;;;;;;;;5035035;28;20227;-84
2023/08/05 01:39:10;;;;;;;4.63;3.90;;;;;;;;;;5024155;28;20548;-84
2023/08/05 01:41:38;;;;;;;5.97;4.28;;;;;;;;;;5028402;28;20201;-84
2023/08/05 01:44:09;;;;;;;4.18;3.70;;;;;;;;;;4985563;28;20212;-85
2023/08/05 01:46:37;;;;;;;5.60;4.60;;;;;;;;;;5023211;28;20208;-85
2023/08/05 01:49:02;;;;;;;4.60;3.60;;;;;;;;;;5020457;28;20254;-84
2023/08/05 01:51:30;;;;;;;3.30;3.10;;;;;;;;;;5011199;28;20220;-84
2023/08/05 01:53:56;;;;;;;5.32;3.90;;;;;;;;;;4981865;28;20219;-84
2023/08/05 01:56:22;;;;;;;4.00;3.60;;;;;;;;;;5004697;28;20277;-84
2023/08/05 01:58:52;;;;;;;4.78;3.92;;;;;;;;;;5001939;28;20220;-84
2023/08/05 02:01:23;;;;;;;4.82;3.90;;;;;;;;;;5045218;28;20219;-86
2023/08/05 02:03:51;;;;;;;11.30;3.90;;;;;;;;;;5048868;28;20219;-85
2023/08/05 02:06:21;;;;;;;3.95;3.60;;;;;;;;;;5007102;28;20720;-85
2023/08/05 02:08:46;;;;;;;4.78;3.60;;;;;;;;;;5042800;28;20224;-85
2023/08/05 02:11:16;;;;;;;7.85;3.30;;;;;;;;;;4993725;28;20279;-85
2023/08/05 02:13:42;;;;;;;4.20;3.38;;;;;;;;;;5018871;28;20236;-85
2023/08/05 02:16:10;;;;;;;5.07;3.50;;;;;;;;;;5043015;28;20665;-84
2023/08/05 02:18:35;;;;;;;5.15;3.35;;;;;;;;;;5022446;28;20216;-84
2023/08/05 02:21:03;;;;;;;4.88;3.90;;;;;;;;;;5017217;28;20215;-85
2023/08/05 02:23:31;;;;;;;5.13;3.70;;;;;;;;;;5001419;28;20231;-84
2023/08/05 02:25:56;;;;;;;3.88;3.47;;;;;;;;;;5017337;28;20213;-85
2023/08/05 02:28:25;;;;;;;3.33;3.00;;;;;;;;;;5012740;28;20227;-85
2023/08/05 02:30:52;;;;;;;4.78;3.67;;;;;;;;;;5048383;28;20853;-84
2023/08/05 02:33:18;;;;;;;3.72;3.33;;;;;;;;;;5015519;28;20219;-84
2023/08/05 02:35:43;;;;;;;6.07;3.30;;;;;;;;;;5029507;28;20230;-83
2023/08/05 02:38:09;;;;;;;5.65;4.22;;;;;;;;;;5007787;28;20845;-84
2023/08/05 02:40:34;;;;;;;5.70;3.63;;;;;;;;;;5011299;28;20638;-84
2023/08/05 02:43:00;;;;;;;6.57;3.80;;;;;;;;;;5040617;28;20238;-84
2023/08/05 02:45:26;;;;;;;3.72;3.40;;;;;;;;;;5061662;28;20239;-84
2023/08/05 02:47:53;;;;;;;4.25;3.60;;;;;;;;;;5023842;28;20602;-84
2023/08/05 02:50:21;;;;;;;4.35;3.65;;;;;;;;;;5002086;28;20887;-85
2023/08/05 02:52:47;;;;;;;3.38;2.95;;;;;;;;;;5023034;28;20704;-85
2023/08/05 02:55:15;;;;;;;4.07;3.42;;;;;;;;;;5000990;28;20284;-86
2023/08/05 02:57:42;;;;;;;3.63;3.30;;;;;;;;;;5005976;28;20331;-84
2023/08/05 03:00:09;;;;;;;4.90;3.80;;;;;;;;;;5025550;28;20711;-84
2023/08/05 03:02:34;;;;;;;4.25;3.60;;;;;;;;;;5015020;28;20274;-84
2023/08/05 03:05:00;;;;;;;4.05;3.30;;;;;;;;;;5041011;28;20236;-84
2023/08/05 03:07:30;;;;;;;3.77;3.37;;;;;;;;;;5002663;28;20225;-84
2023/08/05 03:09:58;;;;;;;6.38;3.25;;;;;;;;;;5031300;28;20223;-85
2023/08/05 03:12:24;;;;;;;7.25;3.85;;;;;;;;;;5018694;28;20223;-85
2023/08/05 03:14:53;;;;;;;4.47;3.40;;;;;;;;;;5029928;28;20576;-84
2023/08/05 03:17:23;;;;;;;3.85;3.42;;;;;;;;;;5029858;28;20223;-84
2023/08/05 03:19:53;;;;;;;3.80;3.25;;;;;;;;;;5023908;28;20240;-84
2023/08/05 03:22:25;;;;;;;4.30;3.38;;;;;;;;;;4987987;28;20224;-85
2023/08/05 03:24:53;;;;;;;5.32;3.70;;;;;;;;;;5015127;28;20227;-85
2023/08/05 03:27:24;;;;;;;4.53;3.73;;;;;;;;;;4978306;28;20628;-85
2023/08/05 03:29:52;;;;;;;4.33;3.93;;;;;;;;;;5010433;28;20220;-85
2023/08/05 03:32:23;;;;;;;3.90;3.60;;;;;;;;;;5006480;28;20215;-85
2023/08/05 03:34:50;;;;;;;3.70;3.40;;;;;;;;;;5056031;28;20886;-84
2023/08/05 03:37:16;;;;;;;3.77;3.37;;;;;;;;;;5007412;28;20296;-84
2023/08/05 03:39:47;;;;;;;4.53;3.57;;;;;;;;;;5034141;28;20227;-85
2023/08/05 03:42:15;;;;;;;5.67;3.67;;;;;;;;;;5032071;28;20268;-84
2023/08/05 03:44:42;;;;;;;3.67;3.37;;;;;;;;;;5008457;28;20215;-85
2023/08/05 03:47:11;;;;;;;3.78;3.35;;;;;;;;;;5037168;28;20813;-85
2023/08/05 03:49:41;;;;;;;4.03;3.20;;;;;;;;;;5004627;28;20228;-84
2023/08/05 03:52:10;;;;;;;3.47;3.17;;;;;;;;;;5026713;28;20363;-84
2023/08/05 03:54:36;;;;;;;4.53;2.92;;;;;;;;;;4985342;28;20735;-85
2023/08/05 03:57:07;;;;;;;3.30;3.00;;;;;;;;;;5027508;28;20235;-84
2023/08/05 03:59:35;;;;;;;4.85;3.35;;;;;;;;;;5037217;28;20850;-85
2023/08/05 04:05:48;;;;;;;3.77;3.13;;;;;;;;;;5016897;28;20308;-84
2023/08/05 04:08:13;;;;;;;6.23;3.20;;;;;;;;;;5033570;28;20220;-85
2023/08/05 04:10:40;;;;;;;3.00;2.70;;;;;;;;;;5023471;28;20220;-84
2023/08/05 04:13:10;;;;;;;3.20;3.00;;;;;;;;;;5043819;28;20315;-84
2023/08/05 04:15:45;;;;;;;3.90;3.08;;;;;;;;;;5009454;28;20893;-84
2023/08/05 04:18:14;;;;;;;3.80;3.08;;;;;;;;;;5020973;28;20235;-84
2023/08/05 04:20:41;;;;;;;4.72;3.72;;;;;;;;;;5012957;28;20232;-85
2023/08/05 04:23:09;;;;;;;3.53;3.22;;;;;;;;;;5034710;28;20221;-84
2023/08/05 04:25:34;;;;;;;3.63;2.88;;;;;;;;;;5007703;28;20299;-83
2023/08/05 04:28:02;;;;;;;4.13;2.97;;;;;;;;;;5048376;28;20240;-83
2023/08/05 04:30:30;;;;;;;3.20;2.95;;;;;;;;;;5025625;28;20581;-84
2023/08/05 04:32:55;;;;;;;3.03;2.75;;;;;;;;;;5028161;28;20269;-85
2023/08/05 04:35:23;;;;;;;5.93;3.40;;;;;;;;;;5018631;28;20230;-85
2023/08/05 04:37:49;;;;;;;3.85;2.78;;;;;;;;;;5021705;28;20211;-83
2023/08/05 04:40:15;;;;;;;3.63;2.97;;;;;;;;;;5058039;28;20672;-83
2023/08/05 04:42:43;;;;;;;6.03;3.60;;;;;;;;;;5042689;28;20227;-83
2023/08/05 04:45:09;;;;;;;3.40;3.10;;;;;;;;;;5054225;28;20232;-83
2023/08/05 04:47:34;;;;;;;3.33;3.03;;;;;;;;;;5046404;28;20221;-83
2023/08/05 04:50:00;;;;;;;4.40;2.72;;;;;;;;;;5061704;28;20223;-83
2023/08/05 04:52:25;;;;;;;4.90;3.20;;;;;;;;;;5020242;28;20288;-83
2023/08/05 04:54:53;;;;;;;3.90;3.50;;;;;;;;;;5028130;28;20251;-86
2023/08/05 04:57:23;;;;;;;3.80;3.50;;;;;;;;;;5037055;28;20227;-85
2023/08/05 04:59:49;;;;;;;3.47;3.17;;;;;;;;;;5026513;28;20246;-86
2023/08/05 05:02:14;;;;;;;4.47;3.25;;;;;;;;;;5036077;28;20232;-86
2023/08/05 05:04:42;;;;;;;4.87;3.33;;;;;;;;;;5059637;28;20220;-86
2023/08/05 05:07:08;;;;;;;5.05;3.22;;;;;;;;;;5049994;28;20222;-85
2023/08/05 05:09:36;;;;;;;4.82;3.00;;;;;;;;;;5038755;28;20262;-85
2023/08/05 05:12:04;;;;;;;5.77;2.90;;;;;;;;;;5027827;28;20253;-86
2023/08/05 05:14:44;;;;;;;4.22;3.10;;;;;;;;;;5045368;28;20293;-86
2023/08/05 05:17:09;;;;;;;3.47;3.00;;;;;;;;;;5018828;28;20243;-85
2023/08/05 05:19:38;;;;;;;3.58;3.28;;;;;;;;;;5026606;28;20220;-86
2023/08/05 05:22:06;;;;;;;7.22;4.30;;;;;;;;;;5046579;28;20725;-85
2023/08/05 05:24:32;;;;;;;3.97;3.40;;;;;;;;;;5026845;28;20216;-86
2023/08/05 05:26:57;;;;;;;5.47;4.28;;;;;;;;;;5027767;28;20216;-85
2023/08/05 05:29:25;;;;;;;4.50;3.97;;;;;;;;;;5023478;28;20222;-86
2023/08/05 05:31:51;;;;;;;5.40;4.10;;;;;;;;;;5015733;28;20244;-85
2023/08/05 05:34:19;;;;;;;5.80;4.07;;;;;;;;;;5042230;28;20451;-86
2023/08/05 05:36:49;;;;;;;6.50;4.10;;;;;;;;;;5023038;28;20302;-86
2023/08/05 05:39:17;;;;;;;4.38;3.97;;;;;;;;;;5018566;28;20266;-86
2023/08/05 05:41:43;;;;;;;4.63;4.25;;;;;;;;;;5035270;28;20223;-86
2023/08/05 05:44:11;;;;;;;4.78;4.30;;;;;;;;;;5023490;28;20212;-86
2023/08/05 05:46:37;;;;;;;4.97;4.55;;;;;;;;;;5042952;28;20220;-87
2023/08/05 05:49:03;;;;;;;8.40;5.10;;;;;;;;;;5012079;28;20222;-86
2023/08/05 05:51:28;;;;;;;5.63;4.30;;;;;;;;;;5021670;28;20224;-86
2023/08/05 05:53:55;;;;;;;4.65;4.15;;;;;;;;;;5027596;28;20225;-85
2023/08/05 05:56:23;;;;;;;4.88;4.47;;;;;;;;;;5025806;28;20611;-86
2023/08/05 05:58:49;;;;;;;5.97;4.63;;;;;;;;;;5030433;28;20224;-86
2023/08/05 06:01:20;;;;;;;7.00;4.93;;;;;;;;;;5017308;28;20233;-87
2023/08/05 06:03:53;;;;;;;8.40;5.88;;;;;;;;;;5007038;28;20238;-86
2023/08/05 06:06:21;;;;;;;6.10;5.05;;;;;;;;;;5005590;28;20595;-85
2023/08/05 06:08:46;;;;;;;5.85;5.13;;;;;;;;;;5050424;28;20203;-85
2023/08/05 06:11:12;;;;;;;6.78;6.10;;;;;;;;;;5025404;28;20233;-84
2023/08/05 06:13:40;;;;;;;8.38;6.38;;;;;;;;;;5052046;28;20220;-86
2023/08/05 06:16:05;;;;;;;7.72;6.50;;;;;;;;;;5009173;28;20236;-87
2023/08/05 06:18:33;;;;;;;6.47;5.80;;;;;;;;;;5015772;28;20219;-85
2023/08/05 06:21:01;;;;;;;7.97;6.22;;;;;;;;;;5016613;28;20725;-85
2023/08/05 06:23:31;;;;;;;9.43;6.25;;;;;;;;;;5007468;28;20224;-86
2023/08/05 06:25:59;;;;;;;6.28;5.68;;;;;;;;;;5022430;28;20207;-86
2023/08/05 06:28:27;;;;;;;6.45;5.43;;;;;;;;;;5027653;28;20239;-87
2023/08/05 06:30:57;;;;;;;7.03;5.60;;;;;;;;;;5024853;28;20216;-87
2023/08/05 06:33:22;;;;;;;9.70;5.30;;;;;;;;;;5043302;28;20238;-85
2023/08/05 06:35:50;;;;;;;9.93;4.97;;;;;;;;;;5010830;28;20216;-86
2023/08/05 06:38:19;;;;;;;9.27;5.25;;;;;;;;;;5021873;28;20230;-84
2023/08/05 06:40:51;;;;;;;5.40;4.72;;;;;;;;;;5034030;28;20677;-85
2023/08/05 06:43:17;;;;;;;5.32;4.35;;;;;;;;;;5015446;28;20688;-85
2023/08/05 06:45:45;;;;;;;6.30;4.07;;;;;;;;;;5005997;28;20216;-85
2023/08/05 06:48:10;;;;;;;5.45;4.57;;;;;;;;;;5014982;28;20215;-85
2023/08/05 06:50:38;;;;;;;5.57;4.78;;;;;;;;;;5014435;28;20231;-85
2023/08/05 06:53:04;;;;;;;4.50;3.70;;;;;;;;;;5020162;28;20238;-87
2023/08/05 06:55:31;;;;;;;12.68;4.13;;;;;;;;;;5034474;28;20239;-85
2023/08/05 06:57:57;;;;;;;9.20;4.60;;;;;;;;;;5018926;28;20209;-87
2023/08/05 07:00:25;;;;;;;5.15;3.60;;;;;;;;;;5007987;28;20673;-87
2023/08/05 07:02:57;;;;;;;7.38;3.03;;;;;;;;;;5005382;28;20696;-85
2023/08/05 07:05:23;;;;;;;4.70;2.95;;;;;;;;;;5035244;28;20280;-84
2023/08/05 07:07:51;;;;;;;5.45;3.15;;;;;;;;;;5025016;28;20290;-86
2023/08/05 07:10:16;;;;;;;7.28;2.40;;;;;;;;;;5012288;28;20216;-85
2023/08/05 07:12:42;;;;;;;4.22;2.88;;;;;;;;;;5052201;28;20277;-86
2023/08/05 07:15:09;;;;;;;6.00;2.85;;;;;;;;;;5025816;28;20224;-84
2023/08/05 07:17:38;;;;;;;8.75;2.85;;;;;;;;;;5029178;28;20228;-85
2023/08/05 07:20:05;;;;;;;3.50;2.30;;;;;;;;;;5013711;28;20220;-85
2023/08/05 07:22:31;;;;;;;8.25;2.63;;;;;;;;;;5017962;28;20273;-84
2023/08/05 07:24:56;;;;;;;2.88;2.38;;;;;;;;;;5043088;28;20216;-85
2023/08/05 07:27:25;;;;;;;4.10;2.28;;;;;;;;;;5051828;28;20249;-84
2023/08/05 07:29:50;;;;;;;5.10;2.30;;;;;;;;;;5048294;28;20211;-85
2023/08/05 07:32:16;;;;;;;3.45;2.38;;;;;;;;;;5046218;28;20246;-85
2023/08/05 07:34:41;;;;;;;4.35;2.17;;;;;;;;;;5021980;28;20236;-84
2023/08/05 07:37:09;;;;;;;5.95;2.63;;;;;;;;;;5020056;28;20223;-84
2023/08/05 07:39:45;;;;;;;5.68;2.60;;;;;;;;;;5027177;28;20256;-84
2023/08/05 07:42:17;;;;;;;4.43;2.42;;;;;;;;;;5038915;28;20239;-83
2023/08/05 07:44:46;;;;;;;3.30;2.05;;;;;;;;;;5042182;28;20227;-84
2023/08/05 07:47:17;;;;;;;7.22;1.90;;;;;;;;;;5040791;28;20612;-84
2023/08/05 07:49:45;;;;;;;4.47;1.95;;;;;;;;;;5040533;28;20251;-85
2023/08/05 07:52:13;;;;;;;10.27;2.30;;;;;;;;;;5042603;28;20227;-83
2023/08/05 07:54:39;;;;;;;6.55;2.22;;;;;;;;;;5040259;28;20736;-83
2023/08/05 07:57:07;;;;;;;2.80;1.85;;;;;;;;;;5061278;28;20576;-84
2023/08/05 07:59:34;;;;;;;3.75;2.05;;;;;;;;;;5019894;28;20230;-84
2023/08/05 08:01:59;;;;;;;3.63;2.40;;;;;;;;;;5002155;28;20230;-83
2023/08/05 08:04:30;;;;;;;4.32;1.95;;;;;;;;;;5025469;28;20220;-84
2023/08/05 08:06:56;;;;;;;3.90;1.90;;;;;;;;;;5001165;28;20650;-83
2023/08/05 08:09:21;;;;;;;2.72;1.70;;;;;;;;;;5008210;28;20283;-83
2023/08/05 08:11:48;;;;;;;3.70;2.05;;;;;;;;;;5033793;28;20227;-82
2023/08/05 08:14:14;;;;;;;3.70;1.80;;;;;;;;;;4995519;28;20221;-84
2023/08/05 08:16:41;;;;;;;6.30;1.90;;;;;;;;;;5033067;28;20200;-83
2023/08/05 08:19:08;;;;;;;2.53;1.75;;;;;;;;;;5078794;28;20239;-82
2023/08/05 08:21:36;;;;;;;4.13;1.73;;;;;;;;;;5039636;28;20216;-83
2023/08/05 08:24:01;;;;;;;3.30;1.75;;;;;;;;;;5019744;28;20264;-83
2023/08/05 08:26:27;;;;;;;6.03;2.22;;;;;;;;;;5045793;28;20222;-82
2023/08/05 08:28:52;;;;;;;3.17;1.70;;;;;;;;;;5057744;28;20226;-83
2023/08/05 08:31:20;;;;;;;3.15;1.90;;;;;;;;;;5053156;28;20218;-84
2023/08/05 08:33:51;;;;;;;4.40;1.98;;;;;;;;;;5035665;28;20275;-79
2023/08/05 08:36:16;;;;;;;5.88;2.00;;;;;;;;;;5043398;28;20357;-79
2023/08/05 08:38:42;;;;;;;4.72;1.77;;;;;;;;;;5018200;28;20216;-78
2023/08/05 08:41:08;;;;;;;4.32;1.90;;;;;;;;;;4998527;28;20220;-78
2023/08/05 08:43:35;;;;;;;5.45;2.15;;;;;;;;;;5022627;28;20597;-78
2023/08/05 08:46:05;;;;;;;4.45;1.98;;;;;;;;;;5044534;28;20215;-78
2023/08/05 08:48:31;;;;;;;4.45;1.85;;;;;;;;;;5059922;28;20283;-78
2023/08/05 08:50:58;;;;;;;3.30;1.90;;;;;;;;;;5016282;28;20273;-78
2023/08/05 08:53:24;;;;;;;4.50;2.00;;;;;;;;;;5003682;28;20221;-79
2023/08/05 08:55:49;;;;;;;4.93;1.90;;;;;;;;;;5046203;28;20219;-78
2023/08/05 08:58:15;;;;;;;4.43;2.17;;;;;;;;;;5037962;28;20220;-77
2023/08/05 09:00:41;;;;;;;5.00;1.90;;;;;;;;;;5038471;28;20227;-79
2023/08/05 09:03:11;;;;;;;2.72;1.67;;;;;;;;;;5038820;28;20681;-78
2023/08/05 09:05:53;;;;;;;3.13;2.00;;;;;;;;;;5018329;28;20234;-78
2023/08/05 09:08:19;;;;;;;4.03;1.92;;;;;;;;;;5061690;28;20306;-79
2023/08/05 09:10:44;;;;;;;4.10;2.13;;;;;;;;;;5026017;28;21416;-79
2023/08/05 09:13:10;;;;;;;2.35;1.80;;;;;;;;;;5023254;28;20321;-78
2023/08/05 09:15:36;;;;;;;4.28;2.08;;;;;;;;;;5014113;28;20661;-79
2023/08/05 09:18:05;;;;;;;4.10;2.00;;;;;;;;;;5045885;28;20308;-79
2023/08/05 09:20:36;;;;;;;4.03;1.75;;;;;;;;;;5032583;28;20224;-78
2023/08/05 09:23:05;;;;;;;3.80;1.90;;;;;;;;;;5019040;28;20223;-78
2023/08/05 09:25:31;;;;;;;3.22;1.70;;;;;;;;;;5040783;28;20223;-78
2023/08/05 09:28:01;;;;;;;3.17;1.65;;;;;;;;;;5034754;28;20220;-78
2023/08/05 09:30:27;;;;;;;5.20;2.22;;;;;;;;;;5012218;28;20215;-78
2023/08/05 09:32:55;;;;;;;4.13;1.95;;;;;;;;;;5058811;28;20216;-78
2023/08/05 09:35:21;;;;;;;3.78;2.00;;;;;;;;;;5042139;28;20228;-79
2023/08/05 09:37:48;;;;;;;3.80;1.95;;;;;;;;;;5047763;28;20305;-80
2023/08/05 09:40:32;;;;;;;3.05;1.55;;;;;;;;;;5037153;28;20204;-77
2023/08/05 09:42:59;;;;;;;4.03;1.95;;;;;;;;;;5007189;28;20224;-79
2023/08/05 09:45:32;;;;;;;4.03;1.90;;;;;;;;;;5063914;28;20226;-79
2023/08/05 09:48:02;;;;;;;2.92;1.83;;;;;;;;;;5039917;28;20361;-78
2023/08/05 09:50:28;;;;;;;3.08;1.95;;;;;;;;;;5032179;28;20354;-77
2023/08/05 09:53:11;;;;;;;3.65;1.70;;;;;;;;;;5053396;28;20211;-78
2023/08/05 09:55:39;;;;;;;5.30;2.08;;;;;;;;;;5044986;28;20287;-79
2023/08/05 09:58:07;;;;;;;2.15;1.42;;;;;;;;;;5050464;28;20212;-78
2023/08/05 10:00:35;;;;;;;3.03;1.73;;;;;;;;;;5021779;28;20240;-79
2023/08/05 10:03:01;;;;;;;5.30;1.92;;;;;;;;;;5020093;28;20310;-80
2023/08/05 10:05:29;;;;;;;1.77;1.50;;;;;;;;;;4997901;28;20227;-78
2023/08/05 10:07:54;;;;;;;2.78;1.90;;;;;;;;;;5044315;28;20221;-79
2023/08/05 10:10:21;;;;;;;2.63;1.70;;;;;;;;;;5024804;28;20226;-79
2023/08/05 10:12:50;;;;;;;2.03;1.67;;;;;;;;;;5043293;28;20228;-78
2023/08/05 10:15:25;;;;;;;3.97;1.48;;;;;;;;;;5056998;28;20306;-79
2023/08/05 10:17:50;;;;;;;3.42;2.00;;;;;;;;;;5034512;28;20318;-82
2023/08/05 10:20:18;;;;;;;3.97;1.90;;;;;;;;;;5028348;28;20786;-83
2023/08/05 10:23:05;;;;;;;2.58;1.88;;;;;;;;;;5032043;28;20236;-86
2023/08/05 10:25:44;;;;;;;3.35;1.75;;;;;;;;;;5007330;28;20223;-85
2023/08/05 10:28:24;;;;;;;2.95;1.65;;;;;;;;;;5000902;28;20303;-84
2023/08/05 10:30:53;;;;;;;1.60;1.48;;;;;;;;;;5041165;28;20277;-85
2023/08/05 10:33:21;;;;;;;1.90;1.73;;;;;;;;;;4979551;28;20235;-83
2023/08/05 10:35:49;;;;;;;2.22;1.60;;;;;;;;;;5002529;28;20242;-83
2023/08/05 10:38:23;;;;;;;1.85;1.50;;;;;;;;;;5044188;28;20216;-84
2023/08/05 10:40:53;;;;;;;1.70;1.60;;;;;;;;;;5005466;28;20297;-83
2023/08/05 10:43:30;;;;;;;1.90;1.50;;;;;;;;;;5035633;28;20677;-83
2023/08/05 10:46:05;;;;;;;3.47;1.67;;;;;;;;;;5053084;28;20385;-85
2023/08/05 10:48:34;;;;;;;4.50;1.63;;;;;;;;;;5020426;28;20230;-85
2023/08/05 10:51:06;;;;;;;1.88;1.50;;;;;;;;;;5018062;28;20221;-83
2023/08/05 10:53:32;;;;;;;2.45;1.52;;;;;;;;;;5029676;28;20235;-84
2023/08/05 10:56:00;;;;;;;2.42;1.63;;;;;;;;;;5047277;28;20280;-83
2023/08/05 10:58:28;;;;;;;4.03;1.73;;;;;;;;;;5014958;28;20220;-84
2023/08/05 11:01:02;;;;;;;4.35;1.52;;;;;;;;;;5029632;28;20297;-85
2023/08/05 11:03:49;;;;;;;2.45;1.83;;;;;;;;;;5051648;28;20211;-83
2023/08/05 11:06:15;;;;;;;79.57;71.97;;;;;;;;;;5053372;28;20227;-84
2023/08/05 11:08:44;;;;;;;12.15;10.95;;;;;;;;;;5028256;28;20227;-84
2023/08/05 11:11:13;;;;;;;9.07;8.15;;;;;;;;;;5004632;28;20212;-83
2023/08/05 11:13:47;;;;;;;5.28;2.95;;;;;;;;;;5013943;28;20233;-82
2023/08/05 11:16:20;;;;;;;5.53;2.85;;;;;;;;;;5033879;28;20428;-83
2023/08/05 11:18:56;;;;;;;3.97;1.90;;;;;;;;;;5032628;28;20592;-84
2023/08/05 11:21:24;;;;;;;4.10;1.60;;;;;;;;;;5013929;28;20223;-85
2023/08/05 11:23:57;;;;;;;1.52;1.42;;;;;;;;;;5031968;28;20208;-84
2023/08/05 11:26:24;;;;;;;1.67;1.50;;;;;;;;;;5024373;28;20282;-84
2023/08/05 11:28:50;;;;;;;3.03;1.58;;;;;;;;;;5002738;28;20308;-83
2023/08/05 11:31:26;;;;;;;4.10;2.00;;;;;;;;;;5040360;28;20220;-83
2023/08/05 11:33:52;;;;;;;2.08;1.65;;;;;;;;;;4994396;28;20574;-83
2023/08/05 11:36:24;;;;;;;5.45;2.08;;;;;;;;;;5052627;28;20221;-84
2023/08/05 11:38:50;;;;;;;3.10;2.15;;;;;;;;;;5008736;28;20223;-82
2023/08/05 11:41:16;;;;;;;2.63;1.70;;;;;;;;;;5040731;28;20220;-84
2023/08/05 11:43:44;;;;;;;1.88;1.55;;;;;;;;;;5054523;28;20203;-84
2023/08/05 11:46:22;;;;;;;2.75;1.63;;;;;;;;;;5046739;28;20226;-84
2023/08/05 11:48:48;;;;;;;4.18;1.52;;;;;;;;;;5022057;28;20223;-84
2023/08/05 11:51:15;;;;;;;2.83;2.00;;;;;;;;;;5013752;28;20220;-83
2023/08/05 11:53:47;;;;;;;2.65;1.70;;;;;;;;;;5045825;28;20231;-83
2023/08/05 11:56:22;;;;;;;4.53;1.67;;;;;;;;;;5041676;28;20218;-84
2023/08/05 11:58:47;;;;;;;4.05;2.10;;;;;;;;;;5040809;28;20342;-83
2023/08/05 12:01:15;;;;;;;2.60;1.77;;;;;;;;;;5026612;28;20215;-84
2023/08/05 12:03:43;;;;;;;2.47;1.85;;;;;;;;;;5006865;28;20238;-83
2023/08/05 12:06:12;;;;;;;2.47;1.75;;;;;;;;;;5028872;28;20216;-84
2023/08/05 12:08:42;;;;;;;4.15;1.83;;;;;;;;;;5051741;28;20226;-86
2023/08/05 12:11:11;;;;;;;2.92;2.17;;;;;;;;;;5007345;28;20224;-83
2023/08/05 12:13:37;;;;;;;3.83;1.80;;;;;;;;;;5042407;28;20234;-85
2023/08/05 12:16:18;;;;;;;4.20;1.92;;;;;;;;;;5007306;28;20216;-83
2023/08/05 12:18:44;;;;;;;2.10;1.85;;;;;;;;;;4986770;28;20266;-83
2023/08/05 12:21:11;;;;;;;2.05;1.80;;;;;;;;;;5033803;28;20648;-85
2023/08/05 12:23:40;;;;;;;2.55;1.67;;;;;;;;;;4992765;28;20232;-86
2023/08/05 12:26:09;;;;;;;2.22;1.60;;;;;;;;;;4989387;28;20231;-84
2023/08/05 12:28:37;;;;;;;3.22;1.73;;;;;;;;;;5036642;28;20219;-85
2023/08/05 12:31:06;;;;;;;2.97;1.80;;;;;;;;;;5016254;28;20290;-84
2023/08/05 12:33:31;;;;;;;5.25;1.90;;;;;;;;;;5005403;28;20874;-83
2023/08/05 12:35:59;;;;;;;2.22;1.70;;;;;;;;;;5048218;28;20220;-84
2023/08/05 12:38:27;;;;;;;3.03;1.92;;;;;;;;;;5034295;28;20577;-83
2023/08/05 12:40:55;;;;;;;4.05;1.70;;;;;;;;;;5063050;28;20224;-83
2023/08/05 12:43:20;;;;;;;4.43;2.03;;;;;;;;;;5041772;28;20222;-84
2023/08/05 12:45:46;;;;;;;2.42;1.75;;;;;;;;;;5020870;28;20211;-85
2023/08/05 12:48:12;;;;;;;3.38;1.98;;;;;;;;;;5033966;28;20223;-84
2023/08/05 12:50:42;;;;;;;3.35;1.88;;;;;;;;;;5022354;28;20277;-85
2023/08/05 12:53:13;;;;;;;2.25;1.73;;;;;;;;;;5023152;28;20211;-83
2023/08/05 12:55:41;;;;;;;4.88;1.95;;;;;;;;;;5022553;28;20223;-84
2023/08/05 12:58:06;;;;;;;2.95;1.80;;;;;;;;;;5039423;28;20224;-84
2023/08/05 13:00:32;;;;;;;3.15;1.80;;;;;;;;;;5030099;28;20234;-80
2023/08/05 13:02:59;;;;;;;2.75;2.00;;;;;;;;;;5045045;28;20230;-85
2023/08/05 13:05:25;;;;;;;5.60;2.20;;;;;;;;;;5027574;28;20692;-85
2023/08/05 13:07:55;;;;;;;5.90;2.20;;;;;;;;;;5014556;28;20243;-83
2023/08/05 13:10:21;;;;;;;3.20;2.00;;;;;;;;;;5044606;28;20211;-84
2023/08/05 13:12:49;;;;;;;3.33;2.15;;;;;;;;;;5001858;28;20234;-84
2023/08/05 13:15:14;;;;;;;2.33;1.80;;;;;;;;;;5021138;28;20712;-84
2023/08/05 13:17:45;;;;;;;2.47;1.80;;;;;;;;;;4999728;28;20262;-82
2023/08/05 13:20:10;;;;;;;1.95;1.70;;;;;;;;;;5018013;28;20209;-83
2023/08/05 13:22:38;;;;;;;3.30;1.80;;;;;;;;;;5018484;28;20231;-86
2023/08/05 13:25:04;;;;;;;2.95;1.75;;;;;;;;;;5002145;28;20227;-85
2023/08/05 13:27:33;;;;;;;2.42;1.90;;;;;;;;;;5005291;28;20221;-85
2023/08/05 13:30:00;;;;;;;2.75;1.50;;;;;;;;;;5037443;28;20219;-85
2023/08/05 13:32:29;;;;;;;3.22;2.00;;;;;;;;;;5002405;28;20216;-85
2023/08/05 13:34:59;;;;;;;2.85;1.90;;;;;;;;;;5029787;28;20358;-83
2023/08/05 13:37:27;;;;;;;2.88;1.90;;;;;;;;;;5017774;28;20213;-85
2023/08/05 13:39:55;;;;;;;2.22;1.83;;;;;;;;;;5061344;28;20219;-84
2023/08/05 13:42:20;;;;;;;3.15;1.75;;;;;;;;;;5027509;28;20617;-84
2023/08/05 13:44:48;;;;;;;2.38;1.75;;;;;;;;;;5016928;28;20224;-83
2023/08/05 13:47:14;;;;;;;2.30;1.85;;;;;;;;;;4983335;28;20212;-84
2023/08/05 13:49:41;;;;;;;2.45;1.90;;;;;;;;;;5011079;28;20239;-82
2023/08/05 13:52:07;;;;;;;2.15;1.95;;;;;;;;;;5033248;28;20230;-78
2023/08/05 13:54:33;;;;;;;1.75;1.63;;;;;;;;;;5024908;28;20230;-79
2023/08/05 13:56:58;;;;;;;2.03;1.60;;;;;;;;;;5042594;28;20227;-78
2023/08/05 13:59:24;;;;;;;1.70;1.60;;;;;;;;;;5016214;28;20212;-79
2023/08/05 14:01:52;;;;;;;3.22;1.70;;;;;;;;;;5046648;28;20223;-79
2023/08/05 14:04:20;;;;;;;4.85;2.08;;;;;;;;;;5016803;28;20208;-79
2023/08/05 14:06:50;;;;;;;2.90;1.70;;;;;;;;;;5019875;28;20801;-78
2023/08/05 14:09:20;;;;;;;1.55;1.45;;;;;;;;;;5031752;28;20431;-80
2023/08/05 14:11:48;;;;;;;3.40;1.92;;;;;;;;;;4985411;28;20473;-79
2023/08/05 14:14:19;;;;;;;2.72;1.85;;;;;;;;;;5022662;28;20631;-79
2023/08/05 14:16:44;;;;;;;3.38;1.80;;;;;;;;;;5015805;28;20723;-79
2023/08/05 14:19:13;;;;;;;2.95;1.70;;;;;;;;;;5057140;28;20216;-80
2023/08/05 14:21:38;;;;;;;2.75;1.63;;;;;;;;;;5047212;28;20625;-79
2023/08/05 14:24:04;;;;;;;1.80;1.70;;;;;;;;;;5038980;28;20219;-80
2023/08/05 14:26:29;;;;;;;2.13;1.67;;;;;;;;;;5044585;28;20308;-80
2023/08/05 14:28:55;;;;;;;2.30;1.60;;;;;;;;;;5029332;28;20991;-79
2023/08/05 14:31:21;;;;;;;1.85;1.75;;;;;;;;;;5026436;28;20231;-78
2023/08/05 14:33:46;;;;;;;3.17;1.60;;;;;;;;;;5015994;28;20298;-80
2023/08/05 14:36:12;;;;;;;3.28;1.85;;;;;;;;;;5048735;28;20738;-79
2023/08/05 14:38:38;;;;;;;2.70;1.60;;;;;;;;;;5040272;28;20219;-79
2023/08/05 14:41:03;;;;;;;3.67;1.52;;;;;;;;;;5039731;28;20220;-78
2023/08/05 14:43:29;;;;;;;2.05;1.80;;;;;;;;;;5051410;28;20272;-79
2023/08/05 14:46:04;;;;;;;2.40;1.60;;;;;;;;;;5044861;28;20285;-79
2023/08/05 14:48:30;;;;;;;1.70;1.60;;;;;;;;;;5057786;28;20207;-78
2023/08/05 14:51:02;;;;;;;3.05;1.60;;;;;;;;;;5058423;28;20221;-77